createdAt,value
2017-08-23T00:00:54.576Z,1020.7
2017-08-23T00:01:53.777Z,1020.7
2017-08-23T00:02:53.358Z,1020.8
2017-08-23T00:03:52.555Z,1020.7
2017-08-23T00:04:51.629Z,1020.7
2017-08-23T00:05:50.823Z,1020.7
2017-08-23T00:06:50.015Z,1020.7
2017-08-23T00:07:49.234Z,1020.7
2017-08-23T00:08:48.297Z,1020.7
2017-08-23T00:09:47.538Z,1020.7
2017-08-23T00:10:46.744Z,1020.7
2017-08-23T00:11:45.931Z,1020.7
2017-08-23T00:12:45.135Z,1020.7
2017-08-23T00:13:44.344Z,1020.8
2017-08-23T00:14:43.533Z,1020.8
2017-08-23T00:15:42.877Z,1020.8
2017-08-23T00:17:40.987Z,1020.8
2017-08-23T00:18:40.055Z,1020.7
2017-08-23T00:19:39.256Z,1020.7
2017-08-23T00:20:38.839Z,1020.7
2017-08-23T00:21:38.029Z,1020.7
2017-08-23T00:22:37.109Z,1020.8
2017-08-23T00:23:07.620Z,1020.8
2017-08-23T00:23:38.008Z,1020.8
2017-08-23T00:24:08.511Z,1020.8
2017-08-23T00:25:34.776Z,1020.8
2017-08-23T00:26:33.972Z,1020.8
2017-08-23T00:27:32.917Z,1020.8
2017-08-23T00:28:32.111Z,1020.8
2017-08-23T00:30:30.689Z,1020.8
2017-08-23T00:31:29.878Z,1020.8
2017-08-23T00:32:29.077Z,1020.8
2017-08-23T00:33:28.274Z,1020.7
2017-08-23T00:34:27.471Z,1020.8
2017-08-23T00:35:26.660Z,1020.8
2017-08-23T00:36:25.858Z,1020.8
2017-08-23T00:37:25.049Z,1020.8
2017-08-23T00:38:24.249Z,1020.8
2017-08-23T00:39:23.442Z,1020.8
2017-08-23T00:40:22.520Z,1020.8
2017-08-23T00:41:21.710Z,1020.8
2017-08-23T00:42:20.913Z,1020.8
2017-08-23T00:43:20.250Z,1020.8
2017-08-23T00:44:19.421Z,1020.8
2017-08-23T00:45:18.501Z,1020.8
2017-08-23T00:46:17.699Z,1020.7
2017-08-23T00:48:15.780Z,1020.8
2017-08-23T00:49:14.988Z,1020.8
2017-08-23T00:50:14.190Z,1020.8
2017-08-23T00:51:13.274Z,1020.7
2017-08-23T00:52:14.027Z,1020.7
2017-08-23T00:53:11.955Z,1020.7
2017-08-23T00:54:10.917Z,1020.7
2017-08-23T00:55:10.250Z,1020.7
2017-08-23T00:56:09.325Z,1020.7
2017-08-23T00:58:07.798Z,1020.7
2017-08-23T01:00:06.023Z,1020.7
2017-08-23T01:01:05.142Z,1020.7
2017-08-23T01:02:04.733Z,1020.7
2017-08-23T01:03:03.691Z,1020.7
2017-08-23T01:04:02.890Z,1020.7
2017-08-23T01:05:02.088Z,1020.8
2017-08-23T01:06:01.167Z,1020.7
2017-08-23T01:07:00.251Z,1020.7
2017-08-23T01:07:59.448Z,1020.7
2017-08-23T01:08:58.645Z,1020.7
2017-08-23T01:09:57.831Z,1020.7
2017-08-23T01:10:57.403Z,1020.7
2017-08-23T01:12:55.483Z,1020.7
2017-08-23T01:13:54.684Z,1020.6
2017-08-23T01:14:53.866Z,1020.6
2017-08-23T01:15:53.054Z,1020.6
2017-08-23T01:16:52.502Z,1020.6
2017-08-23T01:17:23.029Z,1020.6
2017-08-23T01:18:50.674Z,1020.7
2017-08-23T01:19:49.632Z,1020.7
2017-08-23T01:20:49.102Z,1020.7
2017-08-23T01:21:48.072Z,1020.6
2017-08-23T01:22:47.574Z,1020.6
2017-08-23T01:23:46.668Z,1020.6
2017-08-23T01:24:45.871Z,1020.6
2017-08-23T01:25:45.092Z,1020.5
2017-08-23T01:26:44.298Z,1020.5
2017-08-23T01:27:43.247Z,1020.6
2017-08-23T01:28:42.701Z,1020.5
2017-08-23T01:29:41.782Z,1020.6
2017-08-23T01:30:40.856Z,1020.6
2017-08-23T01:31:39.861Z,1020.5
2017-08-23T01:32:39.051Z,1020.6
2017-08-23T01:33:38.508Z,1020.6
2017-08-23T01:34:37.470Z,1020.5
2017-08-23T01:35:36.653Z,1020.5
2017-08-23T01:36:36.116Z,1020.6
2017-08-23T01:37:35.192Z,1020.6
2017-08-23T01:38:34.264Z,1020.5
2017-08-23T01:39:33.479Z,1020.5
2017-08-23T01:40:32.675Z,1020.5
2017-08-23T01:41:31.741Z,1020.5
2017-08-23T01:42:30.951Z,1020.5
2017-08-23T01:43:30.144Z,1020.6
2017-08-23T01:44:29.210Z,1020.5
2017-08-23T01:45:28.429Z,1020.6
2017-08-23T01:46:27.633Z,1020.6
2017-08-23T01:47:26.834Z,1020.6
2017-08-23T01:47:57.340Z,1020.6
2017-08-23T01:48:27.998Z,1020.6
2017-08-23T01:48:58.510Z,1020.6
2017-08-23T01:49:29.021Z,1020.5
2017-08-23T01:49:59.528Z,1020.5
2017-08-23T01:51:23.762Z,1020.5
2017-08-23T01:52:22.953Z,1020.6
2017-08-23T01:53:22.140Z,1020.6
2017-08-23T01:54:21.394Z,1020.6
2017-08-23T01:55:20.592Z,1020.5
2017-08-23T01:56:19.787Z,1020.5
2017-08-23T01:57:18.870Z,1020.5
2017-08-23T01:58:18.060Z,1020.5
2017-08-23T01:59:17.128Z,1020.5
2017-08-23T02:00:16.318Z,1020.5
2017-08-23T02:01:15.502Z,1020.5
2017-08-23T02:02:14.710Z,1020.5
2017-08-23T02:03:13.808Z,1020.5
2017-08-23T02:04:13.002Z,1020.5
2017-08-23T02:05:11.953Z,1020.5
2017-08-23T02:06:11.297Z,1020.5
2017-08-23T02:07:10.378Z,1020.5
2017-08-23T02:08:09.568Z,1020.5
2017-08-23T02:09:08.637Z,1020.5
2017-08-23T02:10:07.826Z,1020.5
2017-08-23T02:11:07.022Z,1020.5
2017-08-23T02:12:06.212Z,1020.5
2017-08-23T02:13:05.790Z,1020.5
2017-08-23T02:14:04.982Z,1020.5
2017-08-23T02:15:04.191Z,1020.4
2017-08-23T02:16:02.881Z,1020.4
2017-08-23T02:17:02.070Z,1020.5
2017-08-23T02:18:01.289Z,1020.5
2017-08-23T02:19:00.864Z,1020.5
2017-08-23T02:20:00.060Z,1020.5
2017-08-23T02:20:58.765Z,1020.4
2017-08-23T02:21:57.975Z,1020.5
2017-08-23T02:22:57.162Z,1020.4
2017-08-23T02:23:56.357Z,1020.5
2017-08-23T02:24:55.816Z,1020.4
2017-08-23T02:25:55.017Z,1020.4
2017-08-23T02:26:54.222Z,1020.4
2017-08-23T02:27:53.426Z,1020.5
2017-08-23T02:28:52.635Z,1020.5
2017-08-23T02:29:51.841Z,1020.4
2017-08-23T02:30:51.045Z,1020.4
2017-08-23T02:31:49.757Z,1020.4
2017-08-23T02:32:49.222Z,1020.4
2017-08-23T02:33:48.204Z,1020.4
2017-08-23T02:34:47.297Z,1020.4
2017-08-23T02:35:46.478Z,1020.4
2017-08-23T02:36:46.056Z,1020.4
2017-08-23T02:37:45.242Z,1020.4
2017-08-23T02:38:44.442Z,1020.4
2017-08-23T02:39:43.632Z,1020.4
2017-08-23T02:40:13.903Z,1020.4
2017-08-23T02:40:44.410Z,1020.4
2017-08-23T02:41:41.966Z,1020.3
2017-08-23T02:42:40.805Z,1020.4
2017-08-23T02:43:40.290Z,1020.4
2017-08-23T02:44:39.356Z,1020.4
2017-08-23T02:45:38.544Z,1020.4
2017-08-23T02:46:37.658Z,1020.4
2017-08-23T02:47:36.721Z,1020.4
2017-08-23T02:48:35.913Z,1020.4
2017-08-23T02:49:35.113Z,1020.3
2017-08-23T02:50:34.177Z,1020.4
2017-08-23T02:51:33.751Z,1020.3
2017-08-23T02:52:32.941Z,1020.3
2017-08-23T02:53:32.121Z,1020.3
2017-08-23T02:54:31.077Z,1020.3
2017-08-23T02:55:30.287Z,1020.3
2017-08-23T02:56:29.471Z,1020.3
2017-08-23T02:57:28.540Z,1020.3
2017-08-23T02:58:27.606Z,1020.3
2017-08-23T02:59:26.793Z,1020.3
2017-08-23T03:00:25.980Z,1020.3
2017-08-23T03:01:25.156Z,1020.3
2017-08-23T03:02:24.350Z,1020.3
2017-08-23T03:03:23.542Z,1020.3
2017-08-23T03:04:22.728Z,1020.3
2017-08-23T03:05:21.801Z,1020.3
2017-08-23T03:06:21.355Z,1020.3
2017-08-23T03:07:20.424Z,1020.3
2017-08-23T03:08:19.381Z,1020.3
2017-08-23T03:09:18.548Z,1020.3
2017-08-23T03:10:17.744Z,1020.4
2017-08-23T03:11:17.324Z,1020.3
2017-08-23T03:12:16.379Z,1020.3
2017-08-23T03:13:15.566Z,1020.4
2017-08-23T03:14:14.523Z,1020.4
2017-08-23T03:15:13.713Z,1020.4
2017-08-23T03:16:12.904Z,1020.4
2017-08-23T03:17:12.359Z,1020.4
2017-08-23T03:18:11.557Z,1020.4
2017-08-23T03:19:10.636Z,1020.4
2017-08-23T03:20:09.815Z,1020.4
2017-08-23T03:21:08.755Z,1020.4
2017-08-23T03:22:08.205Z,1020.4
2017-08-23T03:23:07.392Z,1020.4
2017-08-23T03:24:06.466Z,1020.4
2017-08-23T03:25:05.666Z,1020.4
2017-08-23T03:26:04.612Z,1020.4
2017-08-23T03:27:03.791Z,1020.4
2017-08-23T03:28:03.243Z,1020.4
2017-08-23T03:29:02.299Z,1020.4
2017-08-23T03:30:01.481Z,1020.4
2017-08-23T03:31:00.701Z,1020.4
2017-08-23T03:31:59.900Z,1020.4
2017-08-23T03:32:58.982Z,1020.4
2017-08-23T03:33:58.049Z,1020.4
2017-08-23T03:34:57.231Z,1020.4
2017-08-23T03:35:56.415Z,1020.4
2017-08-23T03:36:55.610Z,1020.5
2017-08-23T03:37:54.785Z,1020.5
2017-08-23T03:38:53.862Z,1020.4
2017-08-23T03:39:53.049Z,1020.4
2017-08-23T03:40:52.495Z,1020.5
2017-08-23T03:41:51.573Z,1020.4
2017-08-23T03:43:49.636Z,1020.5
2017-08-23T03:44:49.211Z,1020.5
2017-08-23T03:45:48.398Z,1020.5
2017-08-23T03:46:47.589Z,1020.5
2017-08-23T03:47:46.772Z,1020.5
2017-08-23T03:48:45.961Z,1020.5
2017-08-23T03:49:44.644Z,1020.4
2017-08-23T03:50:44.213Z,1020.4
2017-08-23T03:51:43.308Z,1020.5
2017-08-23T03:52:42.253Z,1020.5
2017-08-23T03:53:41.698Z,1020.5
2017-08-23T03:54:40.890Z,1020.5
2017-08-23T03:55:40.084Z,1020.5
2017-08-23T03:56:39.162Z,1020.5
2017-08-23T03:57:38.233Z,1020.5
2017-08-23T03:58:37.406Z,1020.4
2017-08-23T03:59:36.472Z,1020.5
2017-08-23T04:00:35.656Z,1020.5
2017-08-23T04:01:34.726Z,1020.5
2017-08-23T04:02:33.945Z,1020.5
2017-08-23T04:03:33.389Z,1020.5
2017-08-23T04:04:32.470Z,1020.5
2017-08-23T04:05:31.535Z,1020.5
2017-08-23T04:06:30.716Z,1020.5
2017-08-23T04:07:29.777Z,1020.5
2017-08-23T04:08:28.967Z,1020.5
2017-08-23T04:09:28.153Z,1020.5
2017-08-23T04:10:27.339Z,1020.5
2017-08-23T04:11:26.548Z,1020.5
2017-08-23T04:12:25.627Z,1020.5
2017-08-23T04:13:24.806Z,1020.6
2017-08-23T04:14:23.996Z,1020.6
2017-08-23T04:15:23.179Z,1020.6
2017-08-23T04:16:22.360Z,1020.6
2017-08-23T04:17:21.828Z,1020.6
2017-08-23T04:18:20.899Z,1020.6
2017-08-23T04:19:20.094Z,1020.6
2017-08-23T04:20:19.048Z,1020.6
2017-08-23T04:21:18.254Z,1020.6
2017-08-23T04:22:17.433Z,1020.6
2017-08-23T04:23:16.510Z,1020.6
2017-08-23T04:24:16.068Z,1020.6
2017-08-23T04:25:15.127Z,1020.7
2017-08-23T04:26:14.306Z,1020.7
2017-08-23T04:27:13.263Z,1020.7
2017-08-23T04:28:12.454Z,1020.7
2017-08-23T04:29:11.536Z,1020.6
2017-08-23T04:30:10.772Z,1020.7
2017-08-23T04:31:09.969Z,1020.7
2017-08-23T04:32:09.023Z,1020.7
2017-08-23T04:33:08.245Z,1020.7
2017-08-23T04:34:07.312Z,1020.7
2017-08-23T04:35:06.508Z,1020.7
2017-08-23T04:36:06.094Z,1020.7
2017-08-23T04:38:04.436Z,1020.7
2017-08-23T04:39:03.499Z,1020.6
2017-08-23T04:40:02.583Z,1020.7
2017-08-23T04:41:01.541Z,1020.7
2017-08-23T04:42:01.118Z,1020.7
2017-08-23T04:43:00.192Z,1020.7
2017-08-23T04:43:59.271Z,1020.8
2017-08-23T04:44:58.458Z,1020.7
2017-08-23T04:45:57.521Z,1020.8
2017-08-23T04:46:56.699Z,1020.8
2017-08-23T04:47:55.758Z,1020.8
2017-08-23T04:48:54.828Z,1020.7
2017-08-23T04:50:53.404Z,1020.7
2017-08-23T04:51:52.591Z,1020.7
2017-08-23T04:52:51.661Z,1020.7
2017-08-23T04:53:50.839Z,1020.8
2017-08-23T04:54:50.029Z,1020.7
2017-08-23T04:55:49.106Z,1020.7
2017-08-23T04:56:48.677Z,1020.7
2017-08-23T04:57:47.755Z,1020.7
2017-08-23T04:58:46.850Z,1020.7
2017-08-23T04:59:46.037Z,1020.7
2017-08-23T05:00:45.216Z,1020.7
2017-08-23T05:01:44.391Z,1020.7
2017-08-23T05:02:43.585Z,1020.7
2017-08-23T05:03:42.537Z,1020.7
2017-08-23T05:04:42.001Z,1020.7
2017-08-23T05:05:41.077Z,1020.7
2017-08-23T05:07:39.143Z,1020.7
2017-08-23T05:08:38.716Z,1020.7
2017-08-23T05:09:37.894Z,1020.6
2017-08-23T05:10:36.575Z,1020.7
2017-08-23T05:11:36.151Z,1020.7
2017-08-23T05:12:35.096Z,1020.7
2017-08-23T05:13:34.286Z,1020.7
2017-08-23T05:14:33.468Z,1020.7
2017-08-23T05:15:32.918Z,1020.7
2017-08-23T05:16:32.000Z,1020.7
2017-08-23T05:17:31.213Z,1020.7
2017-08-23T05:18:30.400Z,1020.6
2017-08-23T05:19:29.459Z,1020.7
2017-08-23T05:20:28.645Z,1020.7
2017-08-23T05:21:27.838Z,1020.7
2017-08-23T05:22:27.025Z,1020.7
2017-08-23T05:23:26.112Z,1020.7
2017-08-23T05:24:25.182Z,1020.7
2017-08-23T05:25:24.359Z,1020.7
2017-08-23T05:26:23.551Z,1020.7
2017-08-23T05:27:22.744Z,1020.7
2017-08-23T05:28:21.927Z,1020.8
2017-08-23T05:29:21.109Z,1020.7
2017-08-23T05:30:20.185Z,1020.7
2017-08-23T05:31:19.375Z,1020.7
2017-08-23T05:32:18.439Z,1020.7
2017-08-23T05:33:17.626Z,1020.7
2017-08-23T05:34:16.818Z,1020.8
2017-08-23T05:34:47.194Z,1020.8
2017-08-23T05:35:17.618Z,1020.7
2017-08-23T05:35:48.123Z,1020.7
2017-08-23T05:36:18.505Z,1020.7
2017-08-23T05:36:48.888Z,1020.7
2017-08-23T05:37:19.153Z,1020.8
2017-08-23T05:38:13.819Z,1020.7
2017-08-23T05:39:12.894Z,1020.7
2017-08-23T05:40:11.960Z,1020.7
2017-08-23T05:41:11.031Z,1020.8
2017-08-23T05:42:10.211Z,1020.7
2017-08-23T05:43:09.667Z,1020.7
2017-08-23T05:44:08.622Z,1020.7
2017-08-23T05:45:07.809Z,1020.8
2017-08-23T05:47:06.287Z,1020.7
2017-08-23T05:48:05.475Z,1020.7
2017-08-23T05:49:04.441Z,1020.7
2017-08-23T05:50:03.627Z,1020.7
2017-08-23T05:51:02.950Z,1020.7
2017-08-23T05:52:01.896Z,1020.7
2017-08-23T05:53:01.360Z,1020.7
2017-08-23T05:54:00.561Z,1020.7
2017-08-23T05:54:59.649Z,1020.7
2017-08-23T05:55:58.596Z,1020.7
2017-08-23T05:56:57.662Z,1020.7
2017-08-23T05:57:57.231Z,1020.7
2017-08-23T05:58:56.423Z,1020.7
2017-08-23T05:59:55.607Z,1020.7
2017-08-23T06:00:54.433Z,1020.7
2017-08-23T06:01:53.883Z,1020.7
2017-08-23T06:02:53.068Z,1020.7
2017-08-23T06:03:52.254Z,1020.7
2017-08-23T06:04:51.442Z,1020.7
2017-08-23T06:05:50.629Z,1020.7
2017-08-23T06:06:49.817Z,1020.7
2017-08-23T06:07:48.879Z,1020.7
2017-08-23T06:08:47.957Z,1020.7
2017-08-23T06:09:47.144Z,1020.7
2017-08-23T06:10:46.339Z,1020.7
2017-08-23T06:11:45.521Z,1020.7
2017-08-23T06:12:44.698Z,1020.7
2017-08-23T06:13:43.899Z,1020.6
2017-08-23T06:15:42.475Z,1020.7
2017-08-23T06:16:41.658Z,1020.7
2017-08-23T06:17:40.346Z,1020.7
2017-08-23T06:18:39.532Z,1020.7
2017-08-23T06:19:38.739Z,1020.7
2017-08-23T06:20:37.927Z,1020.7
2017-08-23T06:21:37.489Z,1020.7
2017-08-23T06:22:36.687Z,1020.7
2017-08-23T06:23:35.752Z,1020.7
2017-08-23T06:24:34.807Z,1020.7
2017-08-23T06:25:34.272Z,1020.7
2017-08-23T06:26:33.339Z,1020.7
2017-08-23T06:27:32.399Z,1020.7
2017-08-23T06:28:31.584Z,1020.7
2017-08-23T06:29:30.643Z,1020.7
2017-08-23T06:30:29.824Z,1020.6
2017-08-23T06:31:29.391Z,1020.7
2017-08-23T06:32:28.462Z,1020.7
2017-08-23T06:33:27.656Z,1020.6
2017-08-23T06:34:26.840Z,1020.6
2017-08-23T06:35:25.915Z,1020.6
2017-08-23T06:36:25.000Z,1020.6
2017-08-23T06:37:24.068Z,1020.7
2017-08-23T06:38:23.640Z,1020.7
2017-08-23T06:40:21.717Z,1020.7
2017-08-23T06:42:20.308Z,1020.6
2017-08-23T06:43:19.491Z,1020.6
2017-08-23T06:44:18.562Z,1020.6
2017-08-23T06:45:17.744Z,1020.6
2017-08-23T06:46:16.955Z,1020.6
2017-08-23T06:47:16.143Z,1020.6
2017-08-23T06:48:15.341Z,1020.6
2017-08-23T06:49:14.540Z,1020.6
2017-08-23T06:50:13.620Z,1020.6
2017-08-23T06:52:12.086Z,1020.6
2017-08-23T06:53:11.170Z,1020.6
2017-08-23T06:54:10.361Z,1020.6
2017-08-23T06:55:09.933Z,1020.6
2017-08-23T06:56:09.147Z,1020.6
2017-08-23T06:57:08.217Z,1020.6
2017-08-23T06:58:07.426Z,1020.6
2017-08-23T06:59:06.269Z,1020.6
2017-08-23T07:00:05.459Z,1020.6
2017-08-23T07:01:04.884Z,1020.6
2017-08-23T07:02:04.217Z,1020.6
2017-08-23T07:03:03.174Z,1020.6
2017-08-23T07:04:02.370Z,1020.6
2017-08-23T07:05:01.442Z,1020.6
2017-08-23T07:06:01.025Z,1020.6
2017-08-23T07:07:00.208Z,1020.6
2017-08-23T07:07:59.158Z,1020.6
2017-08-23T07:08:58.350Z,1020.6
2017-08-23T07:09:57.797Z,1020.6
2017-08-23T07:10:56.767Z,1020.6
2017-08-23T07:11:55.956Z,1020.6
2017-08-23T07:12:55.025Z,1020.6
2017-08-23T07:13:54.234Z,1020.6
2017-08-23T07:14:53.686Z,1020.6
2017-08-23T07:15:52.864Z,1020.6
2017-08-23T07:16:52.067Z,1020.6
2017-08-23T07:17:51.530Z,1020.6
2017-08-23T07:18:50.595Z,1020.5
2017-08-23T07:19:49.795Z,1020.5
2017-08-23T07:21:47.871Z,1020.6
2017-08-23T07:22:18.241Z,1020.6
2017-08-23T07:23:46.625Z,1020.5
2017-08-23T07:24:45.808Z,1020.5
2017-08-23T07:25:44.988Z,1020.5
2017-08-23T07:27:43.577Z,1020.5
2017-08-23T07:28:42.313Z,1020.5
2017-08-23T07:29:42.019Z,1020.5
2017-08-23T07:30:41.083Z,1020.5
2017-08-23T07:31:40.267Z,1020.5
2017-08-23T07:32:39.450Z,1020.5
2017-08-23T07:33:38.641Z,1020.6
2017-08-23T07:34:37.822Z,1020.6
2017-08-23T07:35:37.041Z,1020.6
2017-08-23T07:36:36.123Z,1020.6
2017-08-23T07:37:35.305Z,1020.5
2017-08-23T07:38:34.767Z,1020.6
2017-08-23T07:39:33.837Z,1020.6
2017-08-23T07:40:32.908Z,1020.6
2017-08-23T07:41:32.110Z,1020.6
2017-08-23T07:43:30.948Z,1020.6
2017-08-23T07:44:30.013Z,1020.6
2017-08-23T07:45:29.345Z,1020.6
2017-08-23T07:47:27.430Z,1020.6
2017-08-23T07:48:27.008Z,1020.6
2017-08-23T07:49:26.090Z,1020.6
2017-08-23T07:50:25.278Z,1020.6
2017-08-23T07:51:24.471Z,1020.6
2017-08-23T07:52:23.833Z,1020.6
2017-08-23T07:53:23.018Z,1020.6
2017-08-23T07:54:22.191Z,1020.6
2017-08-23T07:55:21.385Z,1020.6
2017-08-23T07:56:20.571Z,1020.6
2017-08-23T07:57:19.767Z,1020.6
2017-08-23T07:58:18.834Z,1020.6
2017-08-23T07:59:18.399Z,1020.6
2017-08-23T08:00:17.484Z,1020.6
2017-08-23T08:01:16.564Z,1020.6
2017-08-23T08:02:15.748Z,1020.5
2017-08-23T08:03:15.204Z,1020.5
2017-08-23T08:04:14.283Z,1020.5
2017-08-23T08:05:13.460Z,1020.5
2017-08-23T08:06:12.671Z,1020.5
2017-08-23T08:07:12.359Z,1020.5
2017-08-23T08:08:11.548Z,1020.5
2017-08-23T08:09:10.629Z,1020.5
2017-08-23T08:10:09.697Z,1020.5
2017-08-23T08:12:08.268Z,1020.5
2017-08-23T08:13:07.730Z,1020.5
2017-08-23T08:14:06.676Z,1020.5
2017-08-23T08:15:05.749Z,1020.5
2017-08-23T08:16:05.090Z,1020.5
2017-08-23T08:17:04.667Z,1020.5
2017-08-23T08:18:03.779Z,1020.6
2017-08-23T08:19:02.853Z,1020.5
2017-08-23T08:21:01.425Z,1020.6
2017-08-23T08:22:00.622Z,1020.5
2017-08-23T08:23:00.076Z,1020.5
2017-08-23T08:23:59.132Z,1020.5
2017-08-23T08:24:58.325Z,1020.6
2017-08-23T08:25:57.792Z,1020.6
2017-08-23T08:26:56.972Z,1020.6
2017-08-23T08:27:56.055Z,1020.6
2017-08-23T08:28:55.121Z,1020.6
2017-08-23T08:29:54.582Z,1020.6
2017-08-23T08:30:54.031Z,1020.6
2017-08-23T08:31:53.215Z,1020.6
2017-08-23T08:32:52.314Z,1020.6
2017-08-23T08:33:51.497Z,1020.6
2017-08-23T08:34:50.673Z,1020.6
2017-08-23T08:35:49.864Z,1020.6
2017-08-23T08:36:49.067Z,1020.6
2017-08-23T08:37:48.426Z,1020.6
2017-08-23T08:38:47.994Z,1020.6
2017-08-23T08:39:47.066Z,1020.6
2017-08-23T08:40:46.267Z,1020.6
2017-08-23T08:41:45.464Z,1020.6
2017-08-23T08:42:45.034Z,1020.6
2017-08-23T08:43:44.215Z,1020.6
2017-08-23T08:44:43.280Z,1020.6
2017-08-23T08:45:42.338Z,1020.6
2017-08-23T08:46:41.903Z,1020.6
2017-08-23T08:47:40.921Z,1020.5
2017-08-23T08:48:40.488Z,1020.6
2017-08-23T08:49:39.663Z,1020.6
2017-08-23T08:50:38.761Z,1020.6
2017-08-23T08:51:38.339Z,1020.6
2017-08-23T08:52:37.522Z,1020.6
2017-08-23T08:53:36.578Z,1020.6
2017-08-23T08:54:35.769Z,1020.5
2017-08-23T08:55:34.956Z,1020.5
2017-08-23T08:56:34.349Z,1020.5
2017-08-23T08:57:33.422Z,1020.5
2017-08-23T08:59:32.381Z,1020.6
2017-08-23T09:00:31.339Z,1020.5
2017-08-23T09:01:30.519Z,1020.5
2017-08-23T09:02:29.976Z,1020.5
2017-08-23T09:03:29.438Z,1020.5
2017-08-23T09:05:27.912Z,1020.5
2017-08-23T09:06:27.246Z,1020.5
2017-08-23T09:07:26.445Z,1020.5
2017-08-23T09:08:25.775Z,1020.5
2017-08-23T09:09:24.842Z,1020.6
2017-08-23T09:10:24.042Z,1020.5
2017-08-23T09:11:23.235Z,1020.5
2017-08-23T09:12:22.437Z,1020.5
2017-08-23T09:13:21.645Z,1020.5
2017-08-23T09:14:21.094Z,1020.4
2017-08-23T09:15:20.668Z,1020.4
2017-08-23T09:16:19.872Z,1020.5
2017-08-23T09:17:19.053Z,1020.5
2017-08-23T09:18:18.098Z,1020.5
2017-08-23T09:19:17.664Z,1020.5
2017-08-23T09:20:16.722Z,1020.4
2017-08-23T09:21:16.062Z,1020.5
2017-08-23T09:22:15.539Z,1020.5
2017-08-23T09:23:14.505Z,1020.5
2017-08-23T09:24:14.076Z,1020.5
2017-08-23T09:25:13.152Z,1020.5
2017-08-23T09:26:12.625Z,1020.5
2017-08-23T09:27:11.683Z,1020.5
2017-08-23T09:28:10.863Z,1020.5
2017-08-23T09:29:10.548Z,1020.4
2017-08-23T09:30:09.732Z,1020.4
2017-08-23T09:31:08.668Z,1020.5
2017-08-23T09:32:08.123Z,1020.4
2017-08-23T09:33:07.319Z,1020.4
2017-08-23T09:34:06.519Z,1020.4
2017-08-23T09:35:06.021Z,1020.5
2017-08-23T09:36:05.202Z,1020.4
2017-08-23T09:37:04.785Z,1020.5
2017-08-23T09:38:04.117Z,1020.5
2017-08-23T09:38:34.628Z,1020.5
2017-08-23T09:39:05.016Z,1020.5
2017-08-23T09:40:02.579Z,1020.5
2017-08-23T09:41:01.927Z,1020.5
2017-08-23T09:42:01.127Z,1020.5
2017-08-23T09:43:00.194Z,1020.5
2017-08-23T09:43:59.388Z,1020.4
2017-08-23T09:44:58.962Z,1020.4
2017-08-23T09:45:58.036Z,1020.4
2017-08-23T09:47:57.001Z,1020.5
2017-08-23T09:48:56.191Z,1020.5
2017-08-23T09:49:55.247Z,1020.5
2017-08-23T09:50:54.820Z,1020.5
2017-08-23T09:51:53.886Z,1020.5
2017-08-23T09:52:53.445Z,1020.5
2017-08-23T09:53:52.624Z,1020.5
2017-08-23T09:54:51.581Z,1020.5
2017-08-23T09:55:51.161Z,1020.5
2017-08-23T09:56:50.237Z,1020.5
2017-08-23T09:57:49.810Z,1020.5
2017-08-23T09:58:48.997Z,1020.5
2017-08-23T09:59:48.442Z,1020.5
2017-08-23T10:00:47.637Z,1020.5
2017-08-23T10:01:46.701Z,1020.4
2017-08-23T10:02:46.395Z,1020.4
2017-08-23T10:03:45.477Z,1020.4
2017-08-23T10:04:44.568Z,1020.4
2017-08-23T10:05:43.920Z,1020.4
2017-08-23T10:06:43.608Z,1020.4
2017-08-23T10:07:42.554Z,1020.4
2017-08-23T10:08:41.746Z,1020.4
2017-08-23T10:09:41.316Z,1020.3
2017-08-23T10:10:40.374Z,1020.4
2017-08-23T10:11:39.942Z,1020.4
2017-08-23T10:12:39.288Z,1020.3
2017-08-23T10:13:38.365Z,1020.3
2017-08-23T10:14:37.560Z,1020.3
2017-08-23T10:15:37.004Z,1020.3
2017-08-23T10:16:36.454Z,1020.3
2017-08-23T10:17:35.659Z,1020.3
2017-08-23T10:18:35.217Z,1020.3
2017-08-23T10:19:34.176Z,1020.3
2017-08-23T10:20:33.622Z,1020.3
2017-08-23T10:21:33.077Z,1020.4
2017-08-23T10:22:32.315Z,1020.3
2017-08-23T10:23:31.394Z,1020.4
2017-08-23T10:24:30.862Z,1020.3
2017-08-23T10:25:30.188Z,1020.3
2017-08-23T10:26:29.289Z,1020.2
2017-08-23T10:27:28.618Z,1020.3
2017-08-23T10:28:28.083Z,1020.3
2017-08-23T10:29:27.259Z,1020.3
2017-08-23T10:30:26.832Z,1020.3
2017-08-23T10:32:25.421Z,1020.3
2017-08-23T10:33:24.484Z,1020.3
2017-08-23T10:34:23.674Z,1020.3
2017-08-23T10:35:23.008Z,1020.3
2017-08-23T10:36:22.699Z,1020.3
2017-08-23T10:37:21.761Z,1020.3
2017-08-23T10:38:20.936Z,1020.3
2017-08-23T10:39:20.539Z,1020.3
2017-08-23T10:40:19.868Z,1020.3
2017-08-23T10:41:18.938Z,1020.3
2017-08-23T10:42:18.500Z,1020.2
2017-08-23T10:43:17.724Z,1020.3
2017-08-23T10:44:16.795Z,1020.3
2017-08-23T10:45:16.259Z,1020.3
2017-08-23T10:46:15.716Z,1020.2
2017-08-23T10:47:14.671Z,1020.2
2017-08-23T10:49:13.750Z,1020.2
2017-08-23T10:50:12.821Z,1020.3
2017-08-23T10:51:12.017Z,1020.2
2017-08-23T10:52:11.711Z,1020.2
2017-08-23T10:53:10.672Z,1020.2
2017-08-23T10:54:10.257Z,1020.2
2017-08-23T10:55:09.329Z,1020.1
2017-08-23T10:56:08.789Z,1020.2
2017-08-23T10:57:07.974Z,1020.2
2017-08-23T10:58:07.165Z,1020.1
2017-08-23T10:59:06.626Z,1020.1
2017-08-23T11:00:05.811Z,1020.1
2017-08-23T11:01:05.517Z,1020.1
2017-08-23T11:02:04.592Z,1020.1
2017-08-23T11:03:04.042Z,1020.1
2017-08-23T11:04:03.122Z,1020.1
2017-08-23T11:05:02.592Z,1020.1
2017-08-23T11:06:01.653Z,1020.1
2017-08-23T11:07:01.100Z,1020.1
2017-08-23T11:08:00.582Z,1020.1
2017-08-23T11:08:59.647Z,1020.1
2017-08-23T11:09:59.219Z,1020.1
2017-08-23T11:10:58.327Z,1020.1
2017-08-23T11:11:58.016Z,1020.1
2017-08-23T11:12:57.205Z,1020
2017-08-23T11:13:56.294Z,1020.1
2017-08-23T11:14:55.872Z,1020.1
2017-08-23T11:15:55.052Z,1020
2017-08-23T11:17:53.623Z,1020
2017-08-23T11:18:52.808Z,1020
2017-08-23T11:19:52.494Z,1020.1
2017-08-23T11:20:22.997Z,1020.1
2017-08-23T11:20:53.509Z,1020
2017-08-23T11:21:51.058Z,1020
2017-08-23T11:22:50.129Z,1020
2017-08-23T11:25:48.493Z,1020
2017-08-23T11:26:47.574Z,1020
2017-08-23T11:27:47.016Z,1020
2017-08-23T11:28:46.475Z,1019.9
2017-08-23T11:29:45.551Z,1020
2017-08-23T11:30:45.013Z,1019.9
2017-08-23T11:31:44.073Z,1019.9
2017-08-23T11:32:43.537Z,1019.9
2017-08-23T11:33:42.738Z,1019.9
2017-08-23T11:34:42.305Z,1019.9
2017-08-23T11:36:40.882Z,1019.9
2017-08-23T11:37:40.447Z,1019.9
2017-08-23T11:38:39.638Z,1019.9
2017-08-23T11:39:38.825Z,1019.9
2017-08-23T11:40:38.387Z,1019.9
2017-08-23T11:41:37.851Z,1019.9
2017-08-23T11:43:36.316Z,1019.9
2017-08-23T11:44:35.517Z,1019.8
2017-08-23T11:46:34.242Z,1019.9
2017-08-23T11:47:33.596Z,1019.9
2017-08-23T11:48:33.293Z,1019.9
2017-08-23T11:49:32.474Z,1019.9
2017-08-23T11:50:31.545Z,1019.8
2017-08-23T11:51:31.238Z,1019.8
2017-08-23T11:53:29.574Z,1019.8
2017-08-23T11:54:29.198Z,1019.8
2017-08-23T11:55:28.415Z,1019.8
2017-08-23T11:56:27.997Z,1019.7
2017-08-23T11:57:26.955Z,1019.8
2017-08-23T11:58:26.516Z,1019.8
2017-08-23T11:59:25.909Z,1019.8
2017-08-23T12:00:25.471Z,1019.8
2017-08-23T12:01:24.529Z,1019.8
2017-08-23T12:02:23.727Z,1019.8
2017-08-23T12:04:22.805Z,1019.8
2017-08-23T12:05:21.884Z,1019.8
2017-08-23T12:06:21.454Z,1019.8
2017-08-23T12:07:20.533Z,1019.7
2017-08-23T12:08:20.212Z,1019.7
2017-08-23T12:09:19.278Z,1019.8
2017-08-23T12:10:18.979Z,1019.7
2017-08-23T12:11:18.164Z,1019.7
2017-08-23T12:12:17.359Z,1019.7
2017-08-23T12:13:16.937Z,1019.7
2017-08-23T12:14:16.391Z,1019.7
2017-08-23T12:15:15.461Z,1019.7
2017-08-23T12:16:15.055Z,1019.7
2017-08-23T12:17:14.525Z,1019.7
2017-08-23T12:18:13.602Z,1019.7
2017-08-23T12:19:13.183Z,1019.7
2017-08-23T12:20:12.263Z,1019.7
2017-08-23T12:21:11.823Z,1019.7
2017-08-23T12:22:11.379Z,1019.7
2017-08-23T12:23:10.585Z,1019.7
2017-08-23T12:24:09.780Z,1019.7
2017-08-23T12:25:09.242Z,1019.6
2017-08-23T12:26:08.565Z,1019.6
2017-08-23T12:27:08.253Z,1019.6
2017-08-23T12:28:07.434Z,1019.6
2017-08-23T12:29:06.621Z,1019.7
2017-08-23T12:30:06.191Z,1019.7
2017-08-23T12:31:05.387Z,1019.6
2017-08-23T12:33:04.483Z,1019.5
2017-08-23T12:34:03.707Z,1019.5
2017-08-23T12:35:02.886Z,1019.5
2017-08-23T12:36:02.589Z,1019.5
2017-08-23T12:37:01.771Z,1019.5
2017-08-23T12:38:01.369Z,1019.5
2017-08-23T12:39:00.559Z,1019.5
2017-08-23T12:40:00.248Z,1019.5
2017-08-23T12:40:59.331Z,1019.4
2017-08-23T12:41:59.016Z,1019.5
2017-08-23T12:42:58.196Z,1019.5
2017-08-23T12:43:57.378Z,1019.4
2017-08-23T12:44:57.215Z,1019.4
2017-08-23T12:45:56.214Z,1019.4